RJDA(METAR)
07/27 16:00
METAR RJDA 270700Z 28006KT 230V320 9999 FEW030 32/24 Q1001 RMK
1CU030 A2956=
戻る
トップページへ戻る
IMOC Co,.Ltd.